Time;durP1;ratioP1;P1;durP2;ratioP2;P2;SDS_P1;SDS_P2;PMS_P1;PMS_P2;Temp;Humidity;BMP_temperature;BMP_pressure;BME280_temperature;BME280_humidity;BME280_pressure;Samples;Min_cycle;Max_cycle;Signal;HPM_P1;HPM_P2
2023/09/19 00:01:47;;;;;;;6.13;3.70;;;29.30;99.50;;;;;;5041539;28;20198;-78
2023/09/19 00:04:23;;;;;;;5.72;3.92;;;29.40;99.30;;;;;;5033783;28;20246;-75
2023/09/19 00:06:53;;;;;;;4.53;3.80;;;29.50;99.00;;;;;;5036148;28;20302;-76
2023/09/19 00:09:26;;;;;;;5.28;3.45;;;29.70;99.10;;;;;;5047615;28;20688;-76
2023/09/19 00:11:59;;;;;;;6.05;3.63;;;29.70;98.20;;;;;;5051024;28;20589;-76
2023/09/19 00:14:30;;;;;;;6.03;3.45;;;29.80;97.90;;;;;;5046308;28;20202;-76
2023/09/19 00:17:01;;;;;;;5.05;3.53;;;29.90;97.80;;;;;;5036907;28;20217;-77
2023/09/19 00:19:32;;;;;;;3.90;3.13;;;30.00;97.20;;;;;;5034594;28;20221;-76
2023/09/19 00:22:03;;;;;;;5.00;3.53;;;30.10;96.90;;;;;;5037734;28;20189;-77
2023/09/19 00:24:35;;;;;;;4.50;3.20;;;30.30;96.40;;;;;;5046943;28;20194;-76
2023/09/19 00:27:08;;;;;;;4.90;3.60;;;30.30;96.50;;;;;;5050649;28;20206;-76
2023/09/19 00:29:39;;;;;;;6.47;3.75;;;30.40;96.20;;;;;;5051054;28;20189;-75
2023/09/19 00:32:12;;;;;;;4.82;3.63;;;30.50;95.60;;;;;;5042121;28;20194;-77
2023/09/19 00:34:42;;;;;;;4.07;3.10;;;30.60;95.70;;;;;;5033223;28;20650;-77
2023/09/19 00:37:14;;;;;;;6.15;3.70;;;30.80;96.30;;;;;;5040618;28;20309;-77
2023/09/19 00:39:46;;;;;;;3.90;3.38;;;30.90;95.40;;;;;;5047457;28;20198;-76
2023/09/19 00:42:25;;;;;;;4.20;3.38;;;31.00;94.20;;;;;;5038540;28;20194;-77
2023/09/19 00:44:56;;;;;;;5.50;3.17;;;31.10;94.00;;;;;;5044431;28;20197;-76
2023/09/19 00:47:28;;;;;;;6.57;3.78;;;31.30;94.10;;;;;;5040401;28;20190;-78
2023/09/19 00:49:59;;;;;;;7.13;3.63;;;31.40;93.20;;;;;;5032948;28;20190;-75
2023/09/19 00:52:31;;;;;;;6.53;3.70;;;31.50;93.10;;;;;;5032990;28;20197;-75
2023/09/19 00:55:03;;;;;;;6.32;3.90;;;31.60;93.10;;;;;;5033285;28;20281;-77
2023/09/19 00:57:38;;;;;;;6.93;3.40;;;31.70;93.10;;;;;;5043266;28;20565;-79
2023/09/19 01:00:15;;;;;;;4.35;3.40;;;31.70;92.60;;;;;;5036873;28;20246;-75
2023/09/19 01:02:46;;;;;;;4.90;3.47;;;31.80;92.60;;;;;;5051354;28;20621;-75
2023/09/19 01:05:18;;;;;;;4.70;3.30;;;31.90;91.70;;;;;;5042099;28;20690;-76
2023/09/19 01:07:49;;;;;;;7.57;3.55;;;32.00;91.50;;;;;;5051297;28;20661;-77
2023/09/19 01:10:22;;;;;;;5.47;3.47;;;32.10;92.10;;;;;;5052526;28;20190;-77
2023/09/19 01:13:04;;;;;;;3.38;3.03;;;32.30;92.30;;;;;;5052756;28;20189;-75
2023/09/19 01:15:48;;;;;;;4.18;3.25;;;32.40;91.00;;;;;;5047890;28;20196;-75
2023/09/19 01:18:30;;;;;;;3.78;3.33;;;32.50;91.10;;;;;;5052745;28;20198;-76
2023/09/19 01:21:09;;;;;;;6.43;3.63;;;32.50;90.20;;;;;;5050383;28;20916;-75
2023/09/19 01:24:10;;;;;;;3.97;3.10;;;32.60;90.20;;;;;;5049763;28;20276;-76
2023/09/19 01:27:09;;;;;;;4.45;3.58;;;32.60;90.00;;;;;;5049981;28;20227;-75
2023/09/19 01:29:45;;;;;;;4.53;3.55;;;32.70;89.80;;;;;;5047605;28;20189;-76
2023/09/19 01:32:21;;;;;;;5.60;3.40;;;32.80;90.10;;;;;;5045121;28;20232;-75
2023/09/19 01:34:53;;;;;;;4.38;3.22;;;32.90;89.70;;;;;;5041051;28;20269;-75
2023/09/19 01:37:26;;;;;;;4.63;3.53;;;33.00;90.10;;;;;;5030285;28;20229;-75
2023/09/19 01:40:16;;;;;;;5.32;3.55;;;33.00;88.90;;;;;;5033129;28;20247;-75
2023/09/19 01:42:55;;;;;;;3.50;3.20;;;33.10;88.80;;;;;;5032808;28;20273;-75
2023/09/19 01:45:35;;;;;;;3.88;3.28;;;33.20;88.10;;;;;;5036121;28;20224;-75
2023/09/19 01:48:20;;;;;;;4.72;2.92;;;33.30;88.60;;;;;;5035907;28;20557;-75
2023/09/19 01:51:01;;;;;;;4.18;3.35;;;33.40;88.50;;;;;;5035995;28;20195;-74
2023/09/19 01:53:37;;;;;;;4.72;3.17;;;33.50;86.60;;;;;;5036033;28;20248;-75
2023/09/19 01:56:12;;;;;;;4.10;3.55;;;33.60;87.40;;;;;;5047690;28;20236;-75
2023/09/19 01:58:47;;;;;;;5.90;3.50;;;33.60;86.60;;;;;;5043508;28;20186;-75
2023/09/19 02:01:22;;;;;;;6.25;3.92;;;33.60;85.80;;;;;;5035665;28;20190;-74
2023/09/19 02:03:56;;;;;;;5.60;3.85;;;33.60;85.20;;;;;;5033966;28;20701;-75
2023/09/19 02:06:27;;;;;;;6.20;3.30;;;33.60;85.80;;;;;;5035191;28;20230;-75
2023/09/19 02:08:59;;;;;;;8.55;3.55;;;33.60;84.60;;;;;;5034492;28;20190;-75
2023/09/19 02:11:30;;;;;;;4.35;3.38;;;33.60;85.00;;;;;;5035666;28;20277;-75
2023/09/19 02:14:01;;;;;;;3.95;3.30;;;33.60;84.50;;;;;;5034416;28;20201;-74
2023/09/19 02:16:31;;;;;;;3.92;3.00;;;33.80;84.90;;;;;;5035562;28;20705;-76
2023/09/19 02:19:05;;;;;;;4.50;3.05;;;33.80;84.40;;;;;;5044581;28;20212;-75
2023/09/19 02:21:36;;;;;;;4.22;3.25;;;33.80;84.50;;;;;;5047176;28;20194;-75
2023/09/19 02:24:09;;;;;;;3.67;3.20;;;33.80;83.50;;;;;;5041685;28;20203;-75
2023/09/19 02:26:40;;;;;;;6.85;3.50;;;33.90;82.70;;;;;;5037095;28;20202;-74
2023/09/19 02:29:12;;;;;;;3.72;3.15;;;33.90;81.40;;;;;;5036821;28;20193;-75
2023/09/19 02:31:43;;;;;;;3.38;2.88;;;33.80;81.90;;;;;;5038804;28;20224;-77
2023/09/19 02:34:16;;;;;;;5.50;3.30;;;33.90;81.60;;;;;;5035114;28;20201;-76
2023/09/19 02:36:47;;;;;;;5.53;3.72;;;34.00;79.60;;;;;;5034794;28;20214;-75
2023/09/19 02:39:18;;;;;;;4.28;3.40;;;34.00;78.30;;;;;;5036232;28;20550;-75
2023/09/19 02:41:49;;;;;;;4.20;3.30;;;34.00;78.10;;;;;;5038228;28;20194;-75
2023/09/19 02:44:20;;;;;;;4.80;3.00;;;34.00;78.10;;;;;;5052582;28;20202;-75
2023/09/19 02:46:51;;;;;;;5.70;3.20;;;34.00;77.90;;;;;;5045195;28;20669;-75
2023/09/19 02:49:23;;;;;;;4.28;3.13;;;34.00;77.50;;;;;;5040034;28;20252;-76
2023/09/19 02:51:55;;;;;;;3.85;3.10;;;34.00;78.00;;;;;;5034475;28;20705;-75
2023/09/19 02:54:26;;;;;;;5.55;3.30;;;34.00;77.90;;;;;;5041091;28;20256;-74
2023/09/19 02:56:57;;;;;;;3.90;3.20;;;34.00;77.80;;;;;;5043669;28;20279;-75
2023/09/19 02:59:29;;;;;;;6.68;3.55;;;34.10;77.70;;;;;;5039514;28;20272;-78
2023/09/19 03:02:00;;;;;;;4.88;3.40;;;34.10;77.80;;;;;;5041304;28;20194;-75
2023/09/19 03:04:35;;;;;;;5.13;3.25;;;34.20;76.00;;;;;;5033663;28;20271;-76
2023/09/19 03:07:06;;;;;;;4.85;3.17;;;34.20;76.70;;;;;;5041474;28;20225;-75
2023/09/19 03:09:37;;;;;;;3.65;3.00;;;34.10;75.30;;;;;;5054316;28;20672;-76
2023/09/19 03:12:08;;;;;;;4.13;3.20;;;34.10;75.10;;;;;;5048885;28;20193;-75
2023/09/19 03:14:39;;;;;;;3.60;3.13;;;34.10;74.30;;;;;;5034152;28;20596;-76
2023/09/19 03:17:10;;;;;;;5.90;4.35;;;34.10;75.70;;;;;;5033984;28;20225;-76
2023/09/19 03:19:42;;;;;;;5.78;3.50;;;34.00;74.00;;;;;;5051281;28;20204;-75
2023/09/19 03:22:13;;;;;;;6.70;3.47;;;34.00;75.30;;;;;;5046848;28;20198;-75
2023/09/19 03:24:45;;;;;;;6.18;3.10;;;34.00;74.60;;;;;;5041708;28;20198;-75
2023/09/19 03:27:16;;;;;;;4.78;3.40;;;34.00;74.30;;;;;;5044995;28;20713;-75
2023/09/19 03:29:47;;;;;;;5.00;3.10;;;34.10;73.20;;;;;;5048854;28;20189;-75
2023/09/19 03:32:18;;;;;;;4.30;3.03;;;34.10;75.60;;;;;;5043143;28;20319;-75
2023/09/19 03:34:51;;;;;;;4.30;2.88;;;34.10;76.00;;;;;;5053735;28;20193;-76
2023/09/19 03:37:22;;;;;;;3.63;3.28;;;34.10;74.70;;;;;;5039503;28;20218;-76
2023/09/19 03:39:51;;;;;;;4.00;3.10;;;34.00;74.70;;;;;;5034162;28;20639;-75
2023/09/19 03:42:25;;;;;;;3.58;3.20;;;34.00;74.10;;;;;;5033140;28;20217;-75
2023/09/19 03:44:57;;;;;;;4.03;3.20;;;34.00;74.30;;;;;;5036916;28;20259;-75
2023/09/19 03:47:27;;;;;;;4.50;3.20;;;34.00;73.60;;;;;;5037688;28;20201;-75
2023/09/19 03:50:00;;;;;;;7.60;3.30;;;34.00;74.10;;;;;;5053165;28;20281;-75
2023/09/19 03:52:31;;;;;;;3.90;3.40;;;34.00;74.10;;;;;;5052792;28;20193;-75
2023/09/19 03:55:04;;;;;;;4.00;3.00;;;34.00;73.90;;;;;;5046615;28;20557;-77
2023/09/19 03:57:36;;;;;;;4.78;3.50;;;34.00;73.30;;;;;;5051420;28;20223;-74
2023/09/19 04:00:11;;;;;;;4.03;3.25;;;34.00;73.50;;;;;;5053501;28;20197;-75
2023/09/19 04:02:42;;;;;;;3.92;3.10;;;34.10;74.30;;;;;;5039811;28;20217;-77
2023/09/19 04:05:15;;;;;;;5.60;3.70;;;34.10;73.00;;;;;;5046255;28;20333;-78
2023/09/19 04:07:45;;;;;;;4.25;3.60;;;34.10;73.50;;;;;;5042712;28;20194;-76
2023/09/19 04:10:16;;;;;;;3.47;3.17;;;34.20;74.00;;;;;;5053293;28;20185;-76
2023/09/19 04:12:55;;;;;;;3.30;3.00;;;34.30;72.70;;;;;;5041722;28;20194;-76
2023/09/19 04:15:27;;;;;;;3.67;3.28;;;34.20;72.90;;;;;;5047152;28;20672;-76
2023/09/19 04:17:57;;;;;;;4.43;3.10;;;34.20;72.80;;;;;;5050170;28;20738;-75
2023/09/19 04:20:30;;;;;;;4.78;3.20;;;34.20;73.10;;;;;;5033282;28;20191;-75
2023/09/19 04:23:01;;;;;;;3.65;3.22;;;34.10;72.20;;;;;;5033241;28;20197;-77
2023/09/19 04:25:32;;;;;;;3.75;3.35;;;34.20;70.80;;;;;;5041423;28;20736;-77
2023/09/19 04:28:04;;;;;;;5.50;3.58;;;34.30;71.10;;;;;;5053012;28;20558;-76
2023/09/19 04:30:35;;;;;;;5.18;3.30;;;34.20;70.50;;;;;;5053388;28;20196;-74
2023/09/19 04:33:07;;;;;;;5.05;3.50;;;34.10;70.40;;;;;;5041634;28;20206;-75
2023/09/19 04:35:42;;;;;;;5.07;3.45;;;34.10;71.40;;;;;;5043610;28;20197;-75
2023/09/19 04:38:14;;;;;;;4.45;3.15;;;34.10;72.90;;;;;;5052958;28;20619;-77
2023/09/19 04:40:45;;;;;;;5.25;3.20;;;34.10;72.60;;;;;;5048667;28;20646;-74
2023/09/19 04:43:17;;;;;;;3.50;3.20;;;34.10;71.30;;;;;;5049977;28;20200;-75
2023/09/19 04:45:47;;;;;;;4.97;3.40;;;34.00;71.20;;;;;;5032472;28;20566;-75
2023/09/19 04:48:19;;;;;;;4.07;3.00;;;34.00;71.70;;;;;;5048621;28;20645;-74
2023/09/19 04:50:52;;;;;;;5.45;3.13;;;34.10;71.40;;;;;;5041086;28;20292;-78
2023/09/19 04:53:23;;;;;;;4.15;3.40;;;34.00;70.60;;;;;;5047421;28;20202;-76
2023/09/19 04:55:58;;;;;;;3.78;3.33;;;34.00;70.60;;;;;;5036056;28;20198;-75
2023/09/19 04:58:28;;;;;;;4.38;3.55;;;34.00;71.60;;;;;;5033739;28;20222;-76
2023/09/19 05:00:59;;;;;;;3.63;3.33;;;33.90;71.50;;;;;;5048672;28;20277;-75
2023/09/19 05:03:34;;;;;;;4.25;3.30;;;33.90;70.70;;;;;;5047146;28;20225;-75
2023/09/19 05:06:08;;;;;;;3.50;3.20;;;33.90;71.10;;;;;;5037945;28;20224;-76
2023/09/19 05:08:39;;;;;;;4.63;3.22;;;33.90;70.90;;;;;;5032936;28;20295;-75
2023/09/19 05:11:11;;;;;;;6.00;3.70;;;33.80;70.50;;;;;;5033083;28;20191;-76
2023/09/19 05:13:43;;;;;;;3.72;3.35;;;33.70;71.30;;;;;;5032937;28;20248;-75
2023/09/19 05:16:14;;;;;;;4.57;3.28;;;33.70;71.10;;;;;;5032597;28;20255;-75
2023/09/19 05:18:45;;;;;;;4.55;3.30;;;33.60;71.40;;;;;;5046530;28;20213;-75
2023/09/19 05:21:18;;;;;;;4.18;3.00;;;33.60;71.50;;;;;;5036547;28;20248;-76
2023/09/19 05:23:49;;;;;;;4.80;3.28;;;33.60;70.70;;;;;;5045401;28;20198;-76
2023/09/19 05:26:21;;;;;;;4.70;3.13;;;33.60;71.30;;;;;;5053820;28;20268;-75
2023/09/19 05:28:52;;;;;;;4.60;3.42;;;33.60;72.20;;;;;;5053455;28;20201;-76
2023/09/19 05:31:24;;;;;;;3.40;3.03;;;33.50;72.10;;;;;;5040686;28;20202;-76
2023/09/19 05:33:55;;;;;;;4.25;3.22;;;33.30;71.80;;;;;;5036292;28;20221;-75
2023/09/19 05:36:29;;;;;;;4.25;3.30;;;33.30;71.90;;;;;;5052571;28;20198;-77
2023/09/19 05:39:00;;;;;;;3.92;3.22;;;33.20;71.00;;;;;;5043124;28;20218;-76
2023/09/19 05:41:31;;;;;;;3.40;3.00;;;33.10;71.40;;;;;;5048700;28;20216;-75
2023/09/19 05:44:02;;;;;;;3.67;2.97;;;33.10;71.80;;;;;;5048725;28;20654;-75
2023/09/19 05:46:33;;;;;;;14.82;6.22;;;33.00;71.20;;;;;;5043076;28;20204;-75
2023/09/19 05:49:04;;;;;;;11.38;6.03;;;32.80;86.10;;;;;;5042443;28;20673;-75
2023/09/19 05:51:37;;;;;;;10.52;5.53;;;32.60;87.10;;;;;;5035984;28;20558;-75
2023/09/19 05:54:09;;;;;;;11.02;5.50;;;32.30;91.40;;;;;;5037975;28;20210;-75
2023/09/19 05:56:39;;;;;;;11.57;5.57;;;32.20;88.60;;;;;;5042183;28;20193;-76
2023/09/19 05:59:11;;;;;;;14.77;6.35;;;32.10;89.60;;;;;;5053762;28;20339;-76
2023/09/19 06:01:42;;;;;;;13.48;5.90;;;31.90;92.40;;;;;;5046731;28;20205;-75
2023/09/19 06:04:13;;;;;;;10.90;5.85;;;31.60;93.40;;;;;;5045061;28;20206;-77
2023/09/19 06:06:47;;;;;;;10.38;5.85;;;31.30;93.60;;;;;;5050949;28;20580;-78
2023/09/19 06:09:17;;;;;;;13.15;6.07;;;31.10;94.10;;;;;;5054559;28;20198;-75
2023/09/19 06:11:48;;;;;;;12.18;5.95;;;30.90;94.70;;;;;;5041270;28;20200;-77
2023/09/19 06:14:20;;;;;;;13.65;6.18;;;30.80;95.20;;;;;;5052728;28;20285;-75
2023/09/19 06:16:50;;;;;;;12.70;5.70;;;30.60;95.80;;;;;;5051462;28;20185;-75
2023/09/19 06:19:22;;;;;;;13.27;6.10;;;30.40;95.60;;;;;;5048547;28;20205;-75
2023/09/19 06:21:56;;;;;;;11.80;5.65;;;30.30;95.90;;;;;;5041161;28;20202;-75
2023/09/19 06:24:27;;;;;;;14.35;5.50;;;30.20;96.30;;;;;;5052925;28;20204;-76
2023/09/19 06:27:01;;;;;;;11.75;5.25;;;30.10;96.70;;;;;;5038500;28;20677;-76
2023/09/19 06:29:32;;;;;;;11.75;5.22;;;30.10;96.90;;;;;;5043289;28;20201;-79
2023/09/19 06:32:04;;;;;;;14.98;6.32;;;30.10;96.60;;;;;;5051088;28;20229;-76
2023/09/19 06:34:35;;;;;;;11.80;6.10;;;30.00;96.70;;;;;;5045983;28;20294;-76
2023/09/19 06:37:08;;;;;;;11.25;5.97;;;30.10;97.10;;;;;;5051987;28;20198;-75
2023/09/19 06:39:39;;;;;;;13.27;6.03;;;30.00;97.90;;;;;;5040133;28;20198;-78
2023/09/19 06:42:10;;;;;;;15.70;6.38;;;29.90;98.90;;;;;;5051084;28;20650;-77
2023/09/19 06:44:41;;;;;;;13.70;6.30;;;29.80;99.70;;;;;;5049072;28;20197;-76
2023/09/19 06:47:12;;;;;;;16.00;6.45;;;29.70;99.90;;;;;;5035786;28;20202;-76
2023/09/19 06:49:43;;;;;;;11.52;5.68;;;29.50;99.90;;;;;;5053961;28;20288;-77
2023/09/19 06:52:17;;;;;;;12.35;5.57;;;29.30;99.90;;;;;;5054337;28;20556;-76
2023/09/19 06:54:50;;;;;;;10.13;5.30;;;29.30;99.90;;;;;;5054870;28;20243;-76
2023/09/19 06:57:20;;;;;;;11.85;5.50;;;29.20;99.80;;;;;;5052601;28;20186;-75
2023/09/19 06:59:51;;;;;;;12.30;5.55;;;29.20;99.90;;;;;;5034864;28;20646;-76
2023/09/19 07:02:22;;;;;;;13.45;6.07;;;29.10;99.90;;;;;;5034571;28;20276;-77
2023/09/19 07:04:53;;;;;;;9.70;5.15;;;29.00;99.90;;;;;;5034194;28;20209;-77
2023/09/19 07:07:26;;;;;;;11.55;5.05;;;29.00;99.90;;;;;;5051834;28;20614;-76
2023/09/19 07:09:57;;;;;;;12.13;5.75;;;28.90;99.90;;;;;;5045680;28;20233;-75
2023/09/19 07:12:28;;;;;;;10.93;5.15;;;28.80;99.90;;;;;;5034251;28;20190;-77
2023/09/19 07:14:59;;;;;;;11.05;4.95;;;28.70;99.90;;;;;;5034658;28;20201;-75
2023/09/19 07:17:29;;;;;;;12.10;5.00;;;28.60;99.90;;;;;;5042095;28;20638;-76
2023/09/19 07:20:00;;;;;;;13.18;5.20;;;28.50;99.90;;;;;;5038274;28;20196;-76
2023/09/19 07:22:33;;;;;;;15.40;5.60;;;28.40;99.90;;;;;;5036608;28;20199;-76
2023/09/19 07:25:04;;;;;;;12.60;5.32;;;28.30;99.90;;;;;;5053671;28;20661;-76
2023/09/19 07:27:34;;;;;;;17.05;5.63;;;28.20;99.90;;;;;;5054038;28;20267;-75
2023/09/19 07:30:05;;;;;;;14.15;5.68;;;28.10;99.90;;;;;;5053910;28;20558;-75
2023/09/19 07:32:37;;;;;;;15.10;5.20;;;27.90;99.90;;;;;;5053951;28;20280;-76
2023/09/19 07:35:08;;;;;;;10.23;4.97;;;27.90;99.90;;;;;;5053817;28;20616;-75
2023/09/19 07:37:41;;;;;;;10.40;5.10;;;27.70;99.90;;;;;;5052577;28;20198;-75
2023/09/19 07:40:12;;;;;;;15.40;5.30;;;27.60;99.90;;;;;;5051590;28;20192;-76
2023/09/19 07:42:44;;;;;;;10.82;4.90;;;27.40;99.90;;;;;;5037533;28;20209;-76
2023/09/19 07:45:16;;;;;;;10.48;5.15;;;27.30;99.90;;;;;;5041567;28;20204;-77
2023/09/19 07:47:48;;;;;;;12.52;5.25;;;27.30;99.90;;;;;;5045681;28;20573;-76
2023/09/19 07:50:20;;;;;;;14.20;5.95;;;27.20;99.90;;;;;;5045617;28;20719;-77
2023/09/19 07:52:53;;;;;;;16.55;5.70;;;27.00;99.90;;;;;;5049718;28;20244;-76
2023/09/19 07:55:25;;;;;;;13.27;4.65;;;26.90;99.90;;;;;;5050831;28;20208;-76
2023/09/19 07:57:57;;;;;;;12.02;5.35;;;26.70;99.90;;;;;;5044635;28;20221;-76
2023/09/19 08:00:28;;;;;;;13.27;4.80;;;26.60;99.90;;;;;;5045745;28;20206;-76
2023/09/19 08:02:58;;;;;;;15.88;5.50;;;26.50;99.90;;;;;;5050925;28;20229;-76
2023/09/19 08:05:29;;;;;;;13.35;5.03;;;26.50;99.90;;;;;;5036370;28;20252;-76
2023/09/19 08:08:02;;;;;;;14.18;5.50;;;26.40;99.90;;;;;;5045384;28;20204;-76
2023/09/19 08:10:39;;;;;;;13.65;5.13;;;26.30;99.90;;;;;;5051438;28;20197;-75
2023/09/19 08:13:13;;;;;;;10.95;5.07;;;26.20;99.90;;;;;;5044450;28;20201;-77
2023/09/19 08:15:48;;;;;;;14.05;5.85;;;26.10;99.90;;;;;;5051290;28;20572;-76
2023/09/19 08:18:19;;;;;;;16.15;5.72;;;26.00;99.90;;;;;;5046194;28;20220;-78
2023/09/19 08:20:54;;;;;;;15.05;5.68;;;25.90;99.90;;;;;;5038519;28;20204;-77
2023/09/19 08:23:26;;;;;;;16.33;6.00;;;25.80;99.90;;;;;;5043125;28;20208;-76
2023/09/19 08:26:06;;;;;;;18.17;7.20;;;25.60;99.90;;;;;;5048235;28;20190;-77
2023/09/19 08:28:40;;;;;;;17.58;8.10;;;25.60;99.90;;;;;;5046680;28;20207;-76
2023/09/19 08:31:12;;;;;;;13.77;7.57;;;25.50;99.90;;;;;;5051913;28;20219;-77
2023/09/19 08:33:44;;;;;;;15.32;5.38;;;25.40;99.90;;;;;;5045900;28;20240;-76
2023/09/19 08:36:15;;;;;;;14.90;5.70;;;25.40;99.90;;;;;;5039308;28;20197;-76
2023/09/19 08:38:49;;;;;;;12.75;5.47;;;25.40;99.90;;;;;;5041359;28;20308;-76
2023/09/19 08:41:21;;;;;;;17.73;5.75;;;25.30;99.90;;;;;;5038273;28;20676;-77
2023/09/19 08:43:52;;;;;;;14.80;5.80;;;25.20;99.90;;;;;;5045316;28;20209;-75
2023/09/19 08:46:26;;;;;;;14.95;5.97;;;25.20;99.90;;;;;;5040654;28;20225;-76
2023/09/19 08:49:06;;;;;;;17.13;6.15;;;25.10;99.90;;;;;;5051696;28;20203;-75
2023/09/19 08:51:46;;;;;;;15.45;6.07;;;25.00;99.90;;;;;;5049954;28;20656;-76
2023/09/19 08:54:26;;;;;;;20.00;6.20;;;25.00;99.90;;;;;;5054798;28;20193;-76
2023/09/19 08:56:59;;;;;;;13.27;5.75;;;24.90;99.90;;;;;;5049646;28;20346;-75
2023/09/19 08:59:31;;;;;;;15.80;5.82;;;24.90;99.90;;;;;;5050322;28;20217;-76
2023/09/19 09:02:04;;;;;;;15.20;5.55;;;24.80;99.90;;;;;;5056252;28;20227;-77
2023/09/19 09:04:36;;;;;;;14.35;5.38;;;24.80;99.90;;;;;;5046279;28;20289;-76
2023/09/19 09:07:07;;;;;;;15.07;5.88;;;24.70;99.90;;;;;;5055786;28;20236;-76
2023/09/19 09:09:42;;;;;;;11.75;5.22;;;24.70;99.90;;;;;;5050525;28;20193;-76
2023/09/19 09:12:15;;;;;;;11.75;5.82;;;24.60;99.90;;;;;;5044835;28;20247;-75
2023/09/19 09:14:49;;;;;;;16.33;6.03;;;24.60;99.90;;;;;;5042742;28;20194;-76
2023/09/19 09:17:21;;;;;;;14.85;5.82;;;24.60;99.90;;;;;;5042824;28;20250;-76
2023/09/19 09:19:55;;;;;;;15.98;6.25;;;24.50;99.90;;;;;;5052717;28;20284;-76
2023/09/19 09:22:25;;;;;;;14.70;6.13;;;24.50;99.90;;;;;;5049864;28;20203;-76
2023/09/19 09:25:01;;;;;;;13.13;5.63;;;24.40;99.90;;;;;;5050426;28;20198;-76
2023/09/19 09:27:32;;;;;;;16.75;5.70;;;24.30;99.90;;;;;;5055061;28;20239;-77
2023/09/19 09:30:03;;;;;;;14.93;5.60;;;24.30;99.90;;;;;;5056012;28;20251;-76
2023/09/19 09:32:36;;;;;;;14.40;6.38;;;24.20;99.90;;;;;;5052488;28;20202;-77
2023/09/19 09:35:14;;;;;;;16.60;6.32;;;24.10;99.90;;;;;;5038480;28;20633;-76
2023/09/19 09:37:48;;;;;;;15.55;6.57;;;24.10;99.90;;;;;;5048305;28;20205;-75
2023/09/19 09:40:35;;;;;;;18.00;7.22;;;24.10;99.90;;;;;;5056098;28;20774;-76
2023/09/19 09:43:27;;;;;;;14.65;6.50;;;24.00;99.90;;;;;;5049305;28;20279;-76
2023/09/19 09:49:26;;;;;;;16.27;6.72;;;23.90;99.90;;;;;;5046850;28;20287;-76
2023/09/19 09:52:05;;;;;;;16.52;7.20;;;23.90;99.90;;;;;;5044239;28;20208;-75
2023/09/19 09:54:38;;;;;;;18.85;6.97;;;23.80;99.90;;;;;;5041560;28;20208;-76
2023/09/19 09:57:17;;;;;;;17.60;7.55;;;23.70;99.90;;;;;;5052854;28;20610;-76
2023/09/19 09:59:55;;;;;;;13.93;6.53;;;23.70;99.90;;;;;;5053849;28;20224;-76
2023/09/19 10:02:36;;;;;;;15.43;6.93;;;23.60;99.90;;;;;;5048921;28;20636;-76
2023/09/19 10:05:21;;;;;;;15.18;7.22;;;23.60;99.90;;;;;;5051872;28;20233;-78
2023/09/19 10:07:53;;;;;;;14.63;6.90;;;23.50;99.90;;;;;;5044009;28;20194;-76
2023/09/19 10:10:53;;;;;;;13.57;6.65;;;23.50;99.90;;;;;;5053031;28;20263;-77
2023/09/19 10:13:29;;;;;;;12.75;6.32;;;23.40;99.90;;;;;;5052975;28;20232;-76
2023/09/19 10:16:03;;;;;;;14.02;6.25;;;23.30;99.90;;;;;;5042837;28;20197;-79
2023/09/19 10:18:38;;;;;;;17.65;6.10;;;23.30;99.90;;;;;;5048011;28;20296;-76
2023/09/19 10:21:12;;;;;;;15.95;6.40;;;23.20;99.90;;;;;;5044747;28;20207;-76
2023/09/19 10:23:45;;;;;;;15.38;6.50;;;23.20;99.90;;;;;;5053517;28;20193;-76
2023/09/19 10:26:20;;;;;;;16.23;6.28;;;23.20;99.90;;;;;;5041757;28;20194;-77
2023/09/19 10:28:55;;;;;;;17.02;6.53;;;23.10;99.90;;;;;;5047449;28;20197;-77
2023/09/19 10:31:26;;;;;;;15.32;6.75;;;23.10;99.90;;;;;;5049054;28;20287;-78
2023/09/19 10:33:58;;;;;;;15.40;6.63;;;23.10;99.90;;;;;;5035995;28;20203;-76
2023/09/19 10:36:35;;;;;;;14.18;6.72;;;23.00;99.90;;;;;;5040772;28;20194;-76
2023/09/19 10:39:08;;;;;;;15.57;6.70;;;23.00;99.90;;;;;;5046192;28;20267;-77
2023/09/19 10:41:39;;;;;;;16.73;6.55;;;23.00;99.90;;;;;;5041418;28;20658;-78
2023/09/19 10:44:13;;;;;;;17.58;6.80;;;22.90;99.90;;;;;;5050697;28;20201;-76
2023/09/19 10:46:45;;;;;;;13.25;6.60;;;22.90;99.90;;;;;;5036904;28;20202;-78
2023/09/19 10:49:17;;;;;;;17.65;7.72;;;22.90;99.90;;;;;;5047941;28;20293;-77
2023/09/19 10:51:50;;;;;;;14.13;6.63;;;22.80;99.90;;;;;;5054473;28;20205;-75
2023/09/19 10:54:26;;;;;;;15.82;6.45;;;22.70;99.90;;;;;;5052858;28;20194;-77
2023/09/19 10:56:59;;;;;;;16.13;6.38;;;22.70;99.90;;;;;;5042587;28;20197;-76
2023/09/19 10:59:34;;;;;;;10.85;5.72;;;22.60;99.90;;;;;;5041925;28;20320;-76
2023/09/19 11:02:20;;;;;;;12.23;5.72;;;22.60;99.90;;;;;;5043357;28;20634;-76
2023/09/19 11:04:51;;;;;;;11.40;5.88;;;22.60;99.90;;;;;;5040927;28;20204;-77
2023/09/19 11:07:25;;;;;;;13.82;6.13;;;22.50;99.90;;;;;;5042399;28;20198;-76
2023/09/19 11:09:58;;;;;;;11.35;6.00;;;22.50;99.90;;;;;;5042778;28;20197;-76
2023/09/19 11:12:58;;;;;;;13.15;5.93;;;22.50;99.90;;;;;;5043146;28;20223;-76
2023/09/19 11:16:16;;;;;;;12.18;5.70;;;22.40;99.90;;;;;;4995663;28;20197;-77
2023/09/19 11:19:06;;;;;;;10.63;5.63;;;22.40;99.90;;;;;;5037085;28;20194;-77
2023/09/19 11:22:01;;;;;;;11.80;5.68;;;22.40;99.90;;;;;;5034100;28;20202;-77
2023/09/19 11:24:38;;;;;;;13.13;6.30;;;22.40;99.90;;;;;;5033387;28;20205;-76
2023/09/19 11:27:17;;;;;;;12.48;5.22;;;22.40;99.90;;;;;;5052505;28;20201;-77
2023/09/19 11:29:49;;;;;;;10.45;5.63;;;22.30;99.90;;;;;;5041863;28;20547;-76
2023/09/19 11:32:41;;;;;;;10.05;5.30;;;22.30;99.90;;;;;;5047369;28;20194;-76
2023/09/19 11:35:16;;;;;;;8.88;5.00;;;22.30;99.90;;;;;;5043268;28;20201;-78
2023/09/19 11:38:07;;;;;;;10.52;5.20;;;22.30;99.90;;;;;;5051657;28;20193;-77
2023/09/19 11:40:38;;;;;;;9.60;4.57;;;22.30;99.90;;;;;;5041093;28;20253;-76
2023/09/19 11:43:40;;;;;;;12.05;5.20;;;22.30;99.90;;;;;;5046973;28;20692;-77
2023/09/19 11:46:11;;;;;;;11.40;5.07;;;22.30;99.90;;;;;;5046302;28;20661;-76
2023/09/19 11:48:46;;;;;;;10.73;4.68;;;22.20;99.90;;;;;;5043289;28;20658;-76
2023/09/19 11:51:28;;;;;;;9.57;4.55;;;22.20;99.90;;;;;;5036047;28;20225;-76
2023/09/19 11:54:00;;;;;;;6.85;4.35;;;22.10;99.90;;;;;;5047311;28;20201;-77
2023/09/19 11:56:31;;;;;;;8.57;4.32;;;22.10;99.90;;;;;;5043447;28;20625;-76
2023/09/19 11:59:03;;;;;;;9.25;4.93;;;22.10;99.90;;;;;;5047566;28;20193;-78
2023/09/19 12:01:35;;;;;;;9.77;4.55;;;22.00;99.90;;;;;;5044936;28;20218;-77
2023/09/19 12:04:06;;;;;;;8.23;4.53;;;22.00;99.90;;;;;;5050765;28;20233;-77
2023/09/19 12:06:41;;;;;;;7.05;4.55;;;22.00;99.90;;;;;;5045733;28;20288;-76
2023/09/19 12:09:16;;;;;;;9.63;4.43;;;22.00;99.90;;;;;;5041172;28;20201;-76
2023/09/19 12:11:49;;;;;;;10.95;4.50;;;22.00;99.90;;;;;;5046057;28;20198;-77
2023/09/19 12:14:28;;;;;;;9.60;4.53;;;22.00;99.90;;;;;;5041814;28;20201;-76
2023/09/19 12:17:01;;;;;;;8.90;4.30;;;21.90;99.90;;;;;;5037773;28;20200;-77
2023/09/19 12:19:32;;;;;;;8.07;4.35;;;21.90;99.90;;;;;;5041335;28;20210;-76
2023/09/19 12:22:09;;;;;;;8.43;4.50;;;21.80;99.90;;;;;;5050304;28;20203;-76
2023/09/19 12:24:42;;;;;;;7.25;4.30;;;21.80;99.90;;;;;;5039020;28;20197;-76
2023/09/19 12:27:13;;;;;;;6.28;4.00;;;21.80;99.90;;;;;;5047788;28;20277;-76
2023/09/19 12:29:49;;;;;;;6.85;4.20;;;21.80;99.90;;;;;;5042797;28;20567;-76
2023/09/19 12:32:21;;;;;;;8.35;4.20;;;21.70;99.90;;;;;;5051467;28;20201;-76
2023/09/19 12:34:56;;;;;;;7.60;4.10;;;21.70;99.90;;;;;;5045083;28;20214;-77
2023/09/19 12:37:29;;;;;;;7.82;4.03;;;21.70;99.90;;;;;;5047068;28;20247;-76
2023/09/19 12:42:58;;;;;;;9.02;4.47;;;21.60;99.90;;;;;;5036537;28;20205;-76
2023/09/19 12:45:30;;;;;;;7.13;4.07;;;21.50;99.90;;;;;;5035197;28;20289;-76
2023/09/19 12:48:22;;;;;;;7.80;4.03;;;21.50;99.90;;;;;;5033150;28;20187;-76
2023/09/19 12:51:08;;;;;;;8.85;4.28;;;21.50;99.90;;;;;;5033390;28;20210;-76
2023/09/19 12:53:44;;;;;;;7.63;4.32;;;21.50;99.90;;;;;;5050310;28;20202;-76
2023/09/19 12:56:16;;;;;;;6.07;3.90;;;21.50;99.90;;;;;;5046629;28;20194;-76
2023/09/19 12:59:02;;;;;;;5.05;4.10;;;21.50;99.90;;;;;;5046011;28;20209;-76
2023/09/19 13:01:39;;;;;;;5.78;3.92;;;21.50;99.90;;;;;;5038690;28;20218;-76
2023/09/19 13:04:25;;;;;;;6.05;4.18;;;21.50;99.90;;;;;;5032920;28;20190;-76
2023/09/19 13:07:00;;;;;;;6.38;3.83;;;21.50;99.90;;;;;;5031984;28;20248;-77
2023/09/19 13:09:38;;;;;;;5.63;3.83;;;21.40;99.90;;;;;;5045277;28;20653;-77
2023/09/19 13:12:36;;;;;;;5.00;3.90;;;21.40;99.90;;;;;;5039484;28;20542;-76
2023/09/19 13:15:20;;;;;;;4.82;3.75;;;21.40;99.90;;;;;;5032659;28;20274;-76
2023/09/19 13:17:52;;;;;;;6.63;4.03;;;21.40;99.90;;;;;;5032976;28;20233;-77
2023/09/19 13:20:28;;;;;;;4.93;3.72;;;21.30;99.90;;;;;;5033106;28;20222;-77
2023/09/19 13:23:06;;;;;;;5.68;4.03;;;21.30;99.90;;;;;;5032665;28;20576;-77
2023/09/19 13:25:42;;;;;;;5.72;3.90;;;21.30;99.90;;;;;;5033756;28;20295;-77